Time;durP1;ratioP1;P1;durP2;ratioP2;P2;SDS_P1;SDS_P2;PMS_P1;PMS_P2;Temp;Humidity;BMP_temperature;BMP_pressure;BME280_temperature;BME280_humidity;BME280_pressure;Samples;Min_cycle;Max_cycle;Signal;HPM_P1;HPM_P2
2021/12/12 00:01:32;;;;;;;4.50;0.80;;;17.70;25.60;;;;;;5017788;28;20169;-65
2021/12/12 00:04:11;;;;;;;3.60;0.90;;;17.70;25.30;;;;;;4985129;28;20073;-65
2021/12/12 00:06:56;;;;;;;5.10;0.95;;;17.60;25.70;;;;;;5016652;28;20070;-65
2021/12/12 00:09:46;;;;;;;2.78;1.17;;;17.50;27.30;;;;;;5020766;28;20135;-64
2021/12/12 00:12:17;;;;;;;5.32;0.95;;;17.40;27.80;;;;;;5013055;28;20109;-66
2021/12/12 00:14:44;;;;;;;7.43;1.40;;;17.30;28.90;;;;;;5017480;28;20105;-66
2021/12/12 00:17:12;;;;;;;8.10;1.23;;;17.30;28.60;;;;;;5017442;28;20074;-66
2021/12/12 00:19:39;;;;;;;9.60;1.52;;;17.20;27.50;;;;;;5018207;28;20101;-66
2021/12/12 00:22:10;;;;;;;6.22;1.70;;;17.10;29.20;;;;;;5017235;28;20062;-65
2021/12/12 00:24:39;;;;;;;5.07;1.27;;;17.10;30.00;;;;;;5013753;28;20110;-65
2021/12/12 00:27:06;;;;;;;2.38;1.23;;;17.00;27.70;;;;;;5014877;28;20596;-65
2021/12/12 00:29:34;;;;;;;6.05;0.90;;;17.00;28.70;;;;;;5014012;28;20529;-65
2021/12/12 00:32:07;;;;;;;4.03;0.88;;;16.90;27.90;;;;;;4996359;28;20200;-66
2021/12/12 00:34:36;;;;;;;3.40;0.95;;;16.80;28.30;;;;;;5028671;28;20081;-65
2021/12/12 00:37:07;;;;;;;8.65;1.15;;;16.80;30.20;;;;;;4998465;28;20484;-65
2021/12/12 00:39:37;;;;;;;7.07;1.10;;;16.70;31.70;;;;;;4998550;28;20094;-65
2021/12/12 00:42:09;;;;;;;8.93;1.40;;;16.50;32.50;;;;;;5014401;28;20172;-65
2021/12/12 00:44:39;;;;;;;4.68;1.48;;;16.50;32.80;;;;;;5013432;28;20201;-66
2021/12/12 00:47:09;;;;;;;7.47;1.30;;;16.30;33.10;;;;;;4997094;28;20074;-65
2021/12/12 00:49:38;;;;;;;10.45;1.23;;;16.30;33.50;;;;;;5014247;28;20180;-66
2021/12/12 00:52:07;;;;;;;6.32;1.60;;;16.20;33.90;;;;;;4997471;28;20106;-67
2021/12/12 00:54:35;;;;;;;7.82;1.50;;;16.00;34.50;;;;;;5013905;28;20163;-66
2021/12/12 00:57:06;;;;;;;8.23;1.75;;;16.00;34.50;;;;;;4996840;28;20074;-67
2021/12/12 00:59:33;;;;;;;11.70;1.60;;;15.90;34.90;;;;;;5013292;28;20098;-66
2021/12/12 01:02:02;;;;;;;19.70;2.30;;;15.70;35.30;;;;;;4997776;28;20201;-66
2021/12/12 01:04:31;;;;;;;9.68;1.85;;;15.60;35.40;;;;;;5014337;28;20132;-63
2021/12/12 01:07:00;;;;;;;13.85;2.80;;;15.60;35.60;;;;;;5013640;28;20066;-66
2021/12/12 01:09:31;;;;;;;15.35;2.85;;;15.40;36.00;;;;;;4997211;28;20546;-68
2021/12/12 01:12:01;;;;;;;9.70;3.00;;;15.40;36.10;;;;;;4996757;28;20086;-68
2021/12/12 01:14:32;;;;;;;10.23;2.90;;;15.30;36.00;;;;;;5003021;28;20114;-68
2021/12/12 01:17:09;;;;;;;9.85;2.35;;;15.20;36.20;;;;;;5011027;28;20085;-69
2021/12/12 01:19:44;;;;;;;20.05;3.15;;;15.10;36.40;;;;;;4995940;28;20098;-65
2021/12/12 01:22:22;;;;;;;12.07;3.70;;;15.00;36.40;;;;;;4996798;28;20164;-66
2021/12/12 01:24:51;;;;;;;10.43;3.38;;;15.00;36.40;;;;;;4998312;28;20128;-67
2021/12/12 01:27:19;;;;;;;14.02;3.72;;;14.90;36.50;;;;;;4994659;28;20570;-66
2021/12/12 01:29:47;;;;;;;20.52;5.00;;;14.90;37.10;;;;;;5013346;28;20416;-68
2021/12/12 01:32:23;;;;;;;17.27;4.25;;;14.90;37.00;;;;;;5013514;28;20155;-67
2021/12/12 01:34:53;;;;;;;13.63;4.47;;;14.80;37.10;;;;;;5011210;28;20069;-66
2021/12/12 01:39:57;;;;;;;17.65;4.88;;;14.70;37.20;;;;;;4997769;28;20164;-67
2021/12/12 01:42:37;;;;;;;22.52;5.20;;;14.60;37.30;;;;;;5013829;28;20082;-68
2021/12/12 01:45:43;;;;;;;12.95;5.00;;;14.50;37.80;;;;;;5012701;28;20156;-66
2021/12/12 01:48:21;;;;;;;17.52;5.63;;;14.40;38.50;;;;;;4914002;29;20147;-65
2021/12/12 01:50:52;;;;;;;24.77;8.75;;;14.40;38.50;;;;;;4930844;29;20119;-68
2021/12/12 01:53:25;;;;;;;32.75;10.40;;;14.40;38.90;;;;;;4900260;29;20140;-66
2021/12/12 01:55:58;;;;;;;24.65;11.23;;;14.40;39.20;;;;;;4931572;29;20558;-66
2021/12/12 01:58:28;;;;;;;28.60;11.60;;;14.40;39.80;;;;;;4900383;29;20439;-65
2021/12/12 02:01:02;;;;;;;29.15;11.30;;;14.40;40.20;;;;;;4900232;29;20088;-64
2021/12/12 02:03:35;;;;;;;37.08;12.77;;;14.30;40.40;;;;;;4915456;29;20076;-68
2021/12/12 02:06:05;;;;;;;27.73;13.05;;;14.10;40.60;;;;;;4900522;29;20082;-69
2021/12/12 02:08:32;;;;;;;34.40;14.85;;;14.10;40.70;;;;;;4915518;29;20116;-66
2021/12/12 02:11:06;;;;;;;38.53;15.32;;;14.10;41.20;;;;;;4913721;29;20480;-66
2021/12/12 02:13:39;;;;;;;40.85;16.65;;;13.90;41.20;;;;;;4915286;29;20080;-64
2021/12/12 02:16:07;;;;;;;36.08;17.55;;;13.90;41.40;;;;;;4915906;29;20102;-65
2021/12/12 02:18:38;;;;;;;42.13;16.58;;;13.80;41.70;;;;;;4899372;29;20088;-66
2021/12/12 02:21:22;;;;;;;37.42;17.38;;;13.70;42.40;;;;;;4924635;28;20096;-67
2021/12/12 02:24:35;;;;;;;37.17;17.20;;;13.80;42.90;;;;;;5028617;28;20066;-65
2021/12/12 02:35:37;;;;;;;40.92;13.43;;;13.50;43.70;;;;;;5029515;28;20494;-68
2021/12/12 02:38:06;;;;;;;36.58;15.27;;;13.50;43.90;;;;;;5010904;28;20578;-65
2021/12/12 02:40:43;;;;;;;53.15;20.70;;;13.40;43.40;;;;;;5012477;28;20112;-66
2021/12/12 02:43:10;;;;;;;;;;;13.30;43.40;;;;;;4996922;28;20074;-67
2021/12/12 02:45:37;;;;;;;51.15;19.40;;;13.40;43.80;;;;;;5010703;28;19981;-66
2021/12/12 02:48:06;;;;;;;48.00;19.33;;;13.40;44.10;;;;;;5012109;28;20132;-68
2021/12/12 02:50:40;;;;;;;54.00;22.05;;;13.30;44.60;;;;;;5011501;28;20180;-67
2021/12/12 02:53:15;;;;;;;54.80;22.02;;;13.30;44.90;;;;;;4994766;28;20164;-64
2021/12/12 02:55:46;;;;;;;65.32;22.95;;;13.20;45.20;;;;;;4995947;28;20524;-67
2021/12/12 02:58:16;;;;;;;75.00;22.77;;;13.10;45.10;;;;;;4979012;28;20520;-67
2021/12/12 03:01:11;;;;;;;58.45;22.70;;;13.00;45.10;;;;;;5011203;28;20610;-67
2021/12/12 03:03:39;;;;;;;69.05;22.73;;;12.90;45.20;;;;;;4989773;28;20158;-65
2021/12/12 03:06:09;;;;;;;63.85;21.92;;;12.90;45.30;;;;;;5011930;28;20081;-66
2021/12/12 03:08:38;;;;;;;62.67;22.13;;;12.80;45.50;;;;;;5011166;28;20088;-66
2021/12/12 03:11:05;;;;;;;53.17;21.05;;;12.80;45.60;;;;;;5029545;28;20164;-66
2021/12/12 03:13:31;;;;;;;64.13;21.98;;;12.80;45.60;;;;;;5028982;28;20117;-64
2021/12/12 03:15:58;;;;;;;58.55;22.40;;;12.80;45.90;;;;;;5010011;28;20078;-68
2021/12/12 03:18:26;;;;;;;;;;;12.80;45.60;;;;;;4994277;28;20148;-67
2021/12/12 03:20:57;;;;;;;58.35;24.52;;;12.70;45.80;;;;;;5029130;28;19991;-68
2021/12/12 03:23:28;;;;;;;60.28;25.73;;;12.70;46.40;;;;;;5021244;28;20070;-66
2021/12/12 03:26:01;;;;;;;60.83;22.65;;;12.70;46.50;;;;;;4994087;28;20073;-68
2021/12/12 03:28:30;;;;;;;60.47;25.23;;;12.70;46.80;;;;;;4994097;28;20164;-66
2021/12/12 03:31:00;;;;;;;58.67;23.27;;;12.60;46.90;;;;;;4995706;28;20165;-68
2021/12/12 03:33:30;;;;;;;60.03;23.70;;;12.60;46.80;;;;;;5011393;28;20086;-66
2021/12/12 03:35:58;;;;;;;65.40;23.92;;;12.60;46.70;;;;;;5010508;28;20070;-67
2021/12/12 03:38:27;;;;;;;67.03;23.35;;;12.50;46.80;;;;;;4988043;28;20128;-66
2021/12/12 03:40:56;;;;;;;65.72;23.45;;;12.50;47.20;;;;;;4994148;28;20455;-59
2021/12/12 03:43:23;;;;;;;67.65;23.88;;;12.50;47.10;;;;;;5006953;28;20090;-63
2021/12/12 03:45:50;;;;;;;69.13;25.00;;;12.40;47.00;;;;;;5015346;28;20070;-64
2021/12/12 03:48:21;;;;;;;64.25;23.00;;;12.40;47.10;;;;;;5028739;28;20078;-67
2021/12/12 03:50:52;;;;;;;60.80;23.35;;;12.40;47.30;;;;;;4971701;28;20133;-66
2021/12/12 03:53:18;;;;;;;72.85;25.83;;;12.30;47.90;;;;;;5002191;28;20110;-66
2021/12/12 03:55:48;;;;;;;70.32;25.17;;;12.20;47.90;;;;;;4995420;28;21077;-66
2021/12/12 03:58:15;;;;;;;69.20;24.10;;;12.20;48.40;;;;;;4980055;28;20633;-66
2021/12/12 04:01:07;;;;;;;62.83;24.05;;;12.10;48.40;;;;;;4999069;28;20102;-67
2021/12/12 04:03:34;;;;;;;96.25;24.08;;;12.10;48.90;;;;;;5010904;28;20066;-66
2021/12/12 04:06:07;;;;;;;147.45;28.20;;;12.20;49.50;;;;;;4990137;28;20082;-67
2021/12/12 04:08:37;;;;;;;221.70;30.42;;;12.20;49.40;;;;;;5014931;28;20085;-66
2021/12/12 04:11:07;;;;;;;164.90;27.45;;;12.20;49.90;;;;;;4999671;28;20160;-66
2021/12/12 04:13:46;;;;;;;167.85;29.73;;;12.10;50.20;;;;;;4999088;28;20087;-65
2021/12/12 04:16:13;;;;;;;119.55;26.30;;;12.00;50.50;;;;;;5014406;28;20085;-66
2021/12/12 04:18:41;;;;;;;86.90;24.95;;;12.00;50.20;;;;;;5008029;28;20093;-66
2021/12/12 04:21:09;;;;;;;78.53;27.25;;;11.90;49.70;;;;;;5031346;28;20101;-66
2021/12/12 04:23:37;;;;;;;98.85;26.70;;;11.80;49.60;;;;;;5014645;28;20160;-67
2021/12/12 04:26:15;;;;;;;97.55;27.85;;;11.90;50.20;;;;;;5014727;28;20094;-66
2021/12/12 04:28:42;;;;;;;89.57;25.27;;;11.90;50.50;;;;;;5013516;28;20070;-67
2021/12/12 04:31:09;;;;;;;81.55;26.10;;;12.00;50.50;;;;;;5031102;28;20172;-66
2021/12/12 04:33:36;;;;;;;89.22;29.17;;;12.00;50.10;;;;;;4997737;28;20089;-67
2021/12/12 04:36:04;;;;;;;94.85;32.47;;;11.90;49.30;;;;;;5013532;28;20074;-66
2021/12/12 04:38:30;;;;;;;91.82;34.80;;;11.90;49.30;;;;;;4996017;28;20169;-66
2021/12/12 04:40:56;;;;;;;107.38;37.65;;;11.80;49.50;;;;;;4996930;28;20094;-67
2021/12/12 04:43:22;;;;;;;;;;;11.80;49.00;;;;;;5015075;28;20091;-66
2021/12/12 04:46:10;;;;;;;99.05;39.55;;;11.80;49.30;;;;;;4996139;28;20057;-67
2021/12/12 04:51:45;;;;;;;104.93;44.13;;;11.70;50.30;;;;;;5031356;28;20120;-66
2021/12/12 04:54:47;;;;;;;104.18;40.85;;;11.70;50.40;;;;;;5014922;28;20570;-67
2021/12/12 04:57:23;;;;;;;98.28;38.40;;;11.60;50.40;;;;;;4977882;28;20544;-66
2021/12/12 04:59:57;;;;;;;93.18;36.92;;;11.60;50.80;;;;;;5032171;28;20144;-68
2021/12/12 05:02:34;;;;;;;91.65;34.65;;;11.60;51.00;;;;;;5012398;28;20070;-67
2021/12/12 05:06:48;;;;;;;93.78;33.35;;;;;;;;;;5087514;28;20485;-66
2021/12/12 05:09:17;;;;;;;88.38;33.38;;;11.40;65.90;;;;;;5086446;28;20040;-66
2021/12/12 05:12:07;;;;;;;138.75;36.40;;;11.40;54.10;;;;;;5086184;28;20072;-65
2021/12/12 05:14:38;;;;;;;119.05;35.85;;;;;;;;;;5069370;28;20069;-64
2021/12/12 05:17:34;;;;;;;113.10;35.67;;;11.00;76.70;;;;;;5086123;28;20081;-68
2021/12/12 05:20:04;;;;;;;103.95;33.95;;;11.70;66.00;;;;;;5061509;28;20441;-66
2021/12/12 05:23:02;;;;;;;103.43;35.20;;;11.40;57.40;;;;;;5087045;28;20079;-66
2021/12/12 05:25:32;;;;;;;85.07;32.53;;;;;;;;;;5004861;28;20063;-65
2021/12/12 05:28:00;;;;;;;93.68;33.40;;;11.70;84.20;;;;;;5004713;28;20079;-68
2021/12/12 05:30:31;;;;;;;89.50;32.97;;;11.20;56.80;;;;;;5004762;28;20580;-66
2021/12/12 05:33:00;;;;;;;89.85;32.70;;;;;;;;;;4988884;28;20628;-68
2021/12/12 05:35:31;;;;;;;85.75;31.88;;;11.40;84.70;;;;;;4972587;28;20182;-66
2021/12/12 05:38:00;;;;;;;89.97;32.33;;;11.20;54.80;;;;;;4988099;28;20109;-66
2021/12/12 05:40:30;;;;;;;95.30;34.35;;;11.20;52.60;;;;;;4989374;28;20074;-65
2021/12/12 05:42:59;;;;;;;93.38;34.25;;;11.10;51.60;;;;;;4988371;28;20118;-66
2021/12/12 05:45:28;;;;;;;88.65;33.83;;;10.90;75.40;;;;;;4971982;28;20089;-67
2021/12/12 05:47:55;;;;;;;95.05;33.20;;;11.30;61.90;;;;;;4987143;28;20113;-65
2021/12/12 05:50:22;;;;;;;108.28;32.75;;;;;;;;;;4976787;28;20516;-64
2021/12/12 05:52:53;;;;;;;87.68;32.70;;;11.20;51.80;;;;;;4987864;28;20049;-66
2021/12/12 05:55:22;;;;;;;92.45;32.83;;;11.00;70.80;;;;;;4985898;28;20174;-66
2021/12/12 05:57:56;;;;;;;83.72;34.85;;;11.20;74.40;;;;;;4968523;28;20082;-66
2021/12/12 06:00:30;;;;;;;96.45;32.45;;;10.90;84.80;;;;;;4968020;28;20033;-68
2021/12/12 06:02:57;;;;;;;78.63;32.45;;;11.40;66.90;;;;;;5061487;28;20070;-68
2021/12/12 06:05:24;;;;;;;94.35;32.88;;;11.00;51.20;;;;;;5048108;28;20406;-66
2021/12/12 06:07:55;;;;;;;84.00;32.03;;;10.90;51.70;;;;;;5063957;28;20074;-66
2021/12/12 06:10:22;;;;;;;101.22;33.78;;;11.10;85.70;;;;;;5063690;28;20024;-68
2021/12/12 06:12:50;;;;;;;97.18;33.85;;;10.90;84.20;;;;;;5063685;28;20123;-67
2021/12/12 06:15:21;;;;;;;107.43;35.83;;;10.60;63.10;;;;;;5065135;28;20530;-66
2021/12/12 06:17:49;;;;;;;118.82;38.83;;;10.80;51.50;;;;;;5033411;28;20123;-66
2021/12/12 06:20:17;;;;;;;106.13;38.40;;;10.70;51.10;;;;;;5050866;28;20160;-66
2021/12/12 06:22:44;;;;;;;107.50;37.95;;;10.80;51.70;;;;;;5050377;28;20519;-65
2021/12/12 06:25:11;;;;;;;101.55;36.88;;;10.80;51.80;;;;;;5034482;28;20093;-65
2021/12/12 06:27:38;;;;;;;110.55;38.83;;;10.70;51.60;;;;;;5033206;28;20463;-65
2021/12/12 06:30:12;;;;;;;98.45;38.85;;;10.70;51.70;;;;;;5032563;28;20443;-66
2021/12/12 06:32:38;;;;;;;107.93;39.17;;;10.70;52.20;;;;;;5033920;28;20177;-66
2021/12/12 06:35:07;;;;;;;112.78;40.03;;;10.70;52.20;;;;;;5050274;28;20107;-67
2021/12/12 06:37:34;;;;;;;113.57;40.10;;;10.70;52.60;;;;;;5065997;28;20500;-65
2021/12/12 06:40:00;;;;;;;104.07;40.05;;;10.80;74.30;;;;;;5050594;28;20066;-67
2021/12/12 06:42:28;;;;;;;116.97;40.35;;;10.80;51.80;;;;;;5033637;28;20093;-68
2021/12/12 06:44:54;;;;;;;113.28;40.75;;;10.80;52.10;;;;;;5049551;28;20527;-67
2021/12/12 06:47:20;;;;;;;;;;;10.70;51.80;;;;;;5050428;28;20528;-65
2021/12/12 06:49:47;;;;;;;108.15;40.00;;;10.50;52.50;;;;;;5048698;28;20031;-67
2021/12/12 06:52:16;;;;;;;110.32;41.13;;;10.50;52.30;;;;;;5049774;28;20074;-67
2021/12/12 06:54:43;;;;;;;109.53;42.88;;;10.60;52.20;;;;;;5033048;28;20074;-67
2021/12/12 06:57:12;;;;;;;119.07;44.97;;;10.50;52.40;;;;;;5049672;28;20078;-66
2021/12/12 06:59:40;;;;;;;127.43;47.05;;;10.50;53.30;;;;;;5049237;28;20168;-66
2021/12/12 07:02:08;;;;;;;119.72;43.53;;;;;;;;;;5049473;28;20139;-66
2021/12/12 07:04:36;;;;;;;118.85;43.03;;;10.70;92.40;;;;;;5049477;28;20132;-67
2021/12/12 07:07:05;;;;;;;135.10;46.15;;;10.60;52.50;;;;;;5048588;28;20078;-68
2021/12/12 07:09:33;;;;;;;117.72;44.00;;;10.60;52.60;;;;;;5049686;28;20164;-66
2021/12/12 07:12:04;;;;;;;104.45;43.80;;;10.60;52.70;;;;;;5052689;28;20069;-66
2021/12/12 07:14:33;;;;;;;106.88;42.10;;;10.90;67.50;;;;;;5067253;28;20093;-65
2021/12/12 07:17:00;;;;;;;94.25;41.72;;;10.70;57.60;;;;;;5050860;28;20634;-66
2021/12/12 07:19:28;;;;;;;111.20;37.72;;;10.30;60.80;;;;;;5032179;28;20073;-67
2021/12/12 07:21:56;;;;;;;103.32;39.00;;;10.20;50.10;;;;;;5049073;28;20080;-67
2021/12/12 07:24:24;;;;;;;103.15;37.05;;;10.20;57.10;;;;;;5051954;28;20575;-66
2021/12/12 07:26:50;;;;;;;107.78;35.83;;;9.70;74.60;;;;;;5032477;28;20119;-66
2021/12/12 07:29:17;;;;;;;100.78;35.42;;;9.90;63.60;;;;;;5047615;28;20551;-67
2021/12/12 07:31:44;;;;;;;96.10;34.42;;;10.00;59.30;;;;;;5049343;28;20601;-67
2021/12/12 07:34:13;;;;;;;84.65;31.75;;;10.20;57.50;;;;;;5064663;28;20029;-66
2021/12/12 07:36:51;;;;;;;92.55;31.85;;;9.60;47.00;;;;;;5032692;28;20076;-66
2021/12/12 07:39:19;;;;;;;72.53;29.35;;;10.10;47.70;;;;;;5030912;28;20036;-65
2021/12/12 07:41:47;;;;;;;75.53;26.45;;;10.10;47.20;;;;;;5033344;28;20080;-66
2021/12/12 07:44:16;;;;;;;75.57;26.13;;;10.10;70.40;;;;;;5047682;28;20095;-65
2021/12/12 07:46:44;;;;;;;64.80;24.00;;;10.10;45.40;;;;;;5031437;28;20021;-66
2021/12/12 07:49:11;;;;;;;52.50;20.98;;;10.10;45.80;;;;;;5047335;28;20065;-66
2021/12/12 07:51:40;;;;;;;50.33;17.60;;;10.10;45.00;;;;;;5032122;28;20089;-65
2021/12/12 07:54:08;;;;;;;39.25;13.80;;;10.10;44.60;;;;;;5032617;28;20496;-65
2021/12/12 07:56:38;;;;;;;38.85;12.95;;;10.10;42.40;;;;;;5049843;28;20153;-66
2021/12/12 07:59:06;;;;;;;33.40;11.90;;;10.10;41.90;;;;;;5047170;28;20143;-67
2021/12/12 08:01:34;;;;;;;39.20;12.18;;;10.10;42.10;;;;;;5048873;28;20103;-69
2021/12/12 08:04:01;;;;;;;36.92;10.43;;;10.10;42.20;;;;;;5047808;28;20516;-65
2021/12/12 08:06:27;;;;;;;29.73;10.55;;;10.00;41.50;;;;;;5048522;28;20123;-67
2021/12/12 08:08:54;;;;;;;30.80;10.65;;;10.00;41.40;;;;;;5048360;28;20221;-65
2021/12/12 08:11:26;;;;;;;43.80;12.27;;;9.90;41.70;;;;;;5049211;28;20084;-67
2021/12/12 08:13:53;;;;;;;39.28;13.80;;;9.90;42.40;;;;;;5048365;28;20078;-66
2021/12/12 08:16:20;;;;;;;36.17;14.00;;;9.90;42.40;;;;;;5047642;28;20088;-64
2021/12/12 08:18:47;;;;;;;48.08;13.23;;;9.90;42.40;;;;;;5051733;28;20498;-66
2021/12/12 08:21:15;;;;;;;31.08;12.98;;;9.80;42.10;;;;;;5048100;28;20158;-66
2021/12/12 08:23:42;;;;;;;34.95;12.70;;;9.80;42.00;;;;;;5052289;28;20081;-67
2021/12/12 08:26:10;;;;;;;39.97;12.68;;;9.80;41.50;;;;;;5049383;28;20432;-68
2021/12/12 08:28:38;;;;;;;41.03;12.95;;;9.80;42.30;;;;;;5048183;28;20070;-64
2021/12/12 08:31:06;;;;;;;28.58;12.27;;;9.80;43.10;;;;;;5049945;28;20069;-66
2021/12/12 08:33:33;;;;;;;29.63;11.35;;;9.70;42.50;;;;;;5046302;28;20078;-64
2021/12/12 08:36:00;;;;;;;38.00;12.15;;;9.70;43.00;;;;;;5050621;28;20069;-66
2021/12/12 08:38:27;;;;;;;30.27;12.10;;;;;;;;;;5047949;28;20108;-64
2021/12/12 08:40:59;;;;;;;41.20;11.13;;;9.70;42.70;;;;;;5048538;28;20090;-65
2021/12/12 08:43:27;;;;;;;36.53;11.85;;;9.70;43.10;;;;;;5047434;28;20160;-65
2021/12/12 08:46:15;;;;;;;39.15;11.13;;;9.70;43.10;;;;;;5048604;28;20100;-66
2021/12/12 08:48:48;;;;;;;32.92;11.82;;;9.70;43.40;;;;;;5047691;28;20086;-66
2021/12/12 08:51:22;;;;;;;35.42;12.15;;;9.70;42.00;;;;;;5063335;28;20089;-67
2021/12/12 08:53:51;;;;;;;34.40;11.55;;;9.70;40.00;;;;;;5047359;28;20080;-65
2021/12/12 08:56:31;;;;;;;37.40;11.80;;;9.80;38.30;;;;;;5031238;28;20074;-66
2021/12/12 08:58:59;;;;;;;38.03;11.68;;;9.80;38.20;;;;;;5046859;28;20081;-65
2021/12/12 09:01:26;;;;;;;29.30;10.95;;;9.80;38.90;;;;;;5047497;28;20123;-66
2021/12/12 09:04:04;;;;;;;33.38;12.40;;;9.80;38.90;;;;;;5047573;28;20486;-66
2021/12/12 09:06:36;;;;;;;39.33;11.35;;;9.80;39.00;;;;;;5047960;28;20099;-66
2021/12/12 09:09:08;;;;;;;30.88;11.05;;;9.70;39.70;;;;;;5029998;28;20131;-65
2021/12/12 09:11:45;;;;;;;27.63;11.25;;;9.70;40.60;;;;;;5046911;28;20070;-65
2021/12/12 09:14:30;;;;;;;32.55;11.57;;;9.60;41.00;;;;;;5046743;28;20085;-66
2021/12/12 09:17:20;;;;;;;32.33;9.93;;;9.60;40.00;;;;;;5047172;28;20208;-66
2021/12/12 09:20:17;;;;;;;33.05;10.40;;;9.60;40.40;;;;;;5034068;28;20160;-65
2021/12/12 09:23:06;;;;;;;29.02;10.73;;;9.60;39.60;;;;;;5047143;28;20069;-66
2021/12/12 09:25:51;;;;;;;35.15;11.27;;;9.60;39.40;;;;;;5047236;28;20096;-67
2021/12/12 09:28:30;;;;;;;40.95;10.55;;;9.50;39.30;;;;;;5046316;28;20202;-66
2021/12/12 09:31:02;;;;;;;34.85;8.88;;;9.60;37.60;;;;;;5050039;28;20131;-67
2021/12/12 09:34:08;;;;;;;24.73;7.85;;;9.60;37.30;;;;;;5048324;28;20443;-66
2021/12/12 09:36:57;;;;;;;20.88;6.90;;;9.60;37.80;;;;;;4970743;28;20113;-66
2021/12/12 09:39:28;;;;;;;24.63;6.22;;;9.60;37.40;;;;;;5047521;28;20089;-67
2021/12/12 09:42:29;;;;;;;19.48;5.82;;;9.60;37.70;;;;;;5047846;28;20133;-67
2021/12/12 09:45:07;;;;;;;26.15;6.03;;;9.60;37.90;;;;;;5025338;28;20166;-65
2021/12/12 09:51:17;;;;;;;19.42;5.47;;;;;;;;;;5047417;28;20120;-66
2021/12/12 09:54:20;;;;;;;22.48;6.53;;;9.60;37.40;;;;;;5050345;28;20155;-66
2021/12/12 09:56:48;;;;;;;18.63;7.63;;;9.50;38.20;;;;;;5052077;28;20078;-65
2021/12/12 09:59:27;;;;;;;25.02;8.27;;;9.50;38.80;;;;;;5051145;28;20197;-66
2021/12/12 10:02:25;;;;;;;26.92;7.68;;;9.40;38.90;;;;;;5051583;28;20073;-66
2021/12/12 10:05:10;;;;;;;20.65;6.70;;;9.50;39.80;;;;;;5049574;28;20211;-67
2021/12/12 10:07:58;;;;;;;21.13;6.50;;;9.40;40.30;;;;;;5050220;28;20081;-66
2021/12/12 10:10:32;;;;;;;20.23;6.10;;;9.60;41.80;;;;;;5050181;28;20566;-66
2021/12/12 10:13:26;;;;;;;18.70;6.63;;;9.40;40.20;;;;;;5051965;28;20143;-64
2021/12/12 10:16:01;;;;;;;23.70;7.15;;;9.30;39.80;;;;;;5051111;28;20078;-67
2021/12/12 10:18:50;;;;;;;14.93;6.82;;;9.30;40.40;;;;;;5050064;28;20424;-67
2021/12/12 10:21:52;;;;;;;29.83;8.30;;;9.30;40.00;;;;;;5065944;28;20085;-66
2021/12/12 10:24:54;;;;;;;24.30;7.30;;;9.30;40.30;;;;;;5062697;28;20172;-65
2021/12/12 10:27:32;;;;;;;25.35;6.93;;;9.30;39.90;;;;;;4973547;28;20078;-66
2021/12/12 10:30:31;;;;;;;25.65;6.82;;;9.20;39.90;;;;;;4990006;28;20103;-66
2021/12/12 10:33:19;;;;;;;29.17;8.02;;;9.20;40.20;;;;;;4973868;28;20102;-66
2021/12/12 10:36:07;;;;;;;27.13;8.57;;;9.00;45.90;;;;;;4988923;28;20103;-66
2021/12/12 10:38:55;;;;;;;29.73;9.45;;;9.10;39.50;;;;;;4973979;28;20138;-66
2021/12/12 10:41:42;;;;;;;30.55;10.75;;;8.90;40.90;;;;;;4973344;28;20087;-66
2021/12/12 10:44:32;;;;;;;37.63;11.75;;;8.90;40.30;;;;;;4972786;28;20075;-65
2021/12/12 10:47:05;;;;;;;32.55;10.75;;;;;;;;;;4973974;28;20079;-65
2021/12/12 10:49:52;;;;;;;28.85;11.38;;;8.70;39.60;;;;;;4983832;28;20098;-66
2021/12/12 10:52:47;;;;;;;32.45;11.77;;;9.60;45.30;;;;;;4989253;28;20085;-66
2021/12/12 10:55:13;;;;;;;29.40;10.77;;;;;;;;;;4989489;28;20082;-66
2021/12/12 10:57:39;;;;;;;;;;;9.10;67.90;;;;;;4973395;28;20082;-66
2021/12/12 11:00:22;;;;;;;29.42;10.30;;;9.10;42.00;;;;;;4989209;28;19996;-67
2021/12/12 11:02:55;;;;;;;27.08;10.15;;;9.00;42.60;;;;;;5048783;28;20084;-67
2021/12/12 11:05:27;;;;;;;29.40;10.60;;;;;;;;;;5049186;28;20833;-67
2021/12/12 11:08:05;;;;;;;23.77;10.32;;;;;;;;;;5051400;28;20085;-68
2021/12/12 11:10:38;;;;;;;30.30;10.13;;;8.90;42.70;;;;;;5047773;28;20073;-65
2021/12/12 11:13:36;;;;;;;22.92;8.57;;;9.10;59.00;;;;;;5049949;28;20083;-64
2021/12/12 11:16:26;;;;;;;17.33;9.02;;;9.00;43.50;;;;;;5048128;28;20100;-67
2021/12/12 11:19:12;;;;;;;27.85;9.18;;;8.80;49.20;;;;;;5064428;28;20077;-66
2021/12/12 11:21:43;;;;;;;26.52;8.55;;;;;;;;;;5049000;28;20081;-66
2021/12/12 11:24:41;;;;;;;25.98;8.82;;;8.80;78.90;;;;;;5049244;28;20081;-66
2021/12/12 11:27:13;;;;;;;25.00;7.18;;;;;;;;;;4969342;28;20165;-66
2021/12/12 11:30:01;;;;;;;22.80;7.00;;;8.80;43.90;;;;;;4953406;28;20087;-66
2021/12/12 11:32:33;;;;;;;19.88;7.07;;;9.00;55.80;;;;;;4953417;28;20023;-67
2021/12/12 11:35:00;;;;;;;28.83;6.32;;;8.90;44.70;;;;;;4969126;28;20526;-68
2021/12/12 11:37:29;;;;;;;27.08;6.15;;;8.90;44.90;;;;;;4968884;28;20162;-67
2021/12/12 11:40:02;;;;;;;24.55;6.43;;;8.90;67.10;;;;;;4968750;28;20086;-66
2021/12/12 11:42:34;;;;;;;15.15;5.72;;;8.80;44.80;;;;;;4968983;28;20454;-67
2021/12/12 11:45:17;;;;;;;16.13;4.93;;;8.80;45.00;;;;;;4969347;28;20099;-68
2021/12/12 11:48:02;;;;;;;19.40;5.60;;;8.80;44.80;;;;;;4968780;28;20133;-66
2021/12/12 11:50:42;;;;;;;21.42;5.57;;;8.70;44.80;;;;;;4954816;28;20091;-68
2021/12/12 11:53:17;;;;;;;17.08;5.10;;;8.70;45.40;;;;;;4968110;28;20213;-68
2021/12/12 11:56:06;;;;;;;17.52;5.38;;;8.70;44.70;;;;;;4968519;28;20070;-66
2021/12/12 11:58:39;;;;;;;11.85;5.20;;;8.60;45.30;;;;;;4968267;28;20079;-67
2021/12/12 12:01:10;;;;;;;13.48;4.97;;;8.10;47.20;;;;;;4968609;28;20098;-67
2021/12/12 12:03:36;;;;;;;21.90;5.50;;;8.60;49.90;;;;;;5020984;28;20539;-66
2021/12/12 12:06:20;;;;;;;14.57;4.53;;;8.40;46.70;;;;;;5047910;28;20124;-66
2021/12/12 12:09:15;;;;;;;18.52;4.55;;;8.10;47.80;;;;;;5049148;28;20029;-67
2021/12/12 12:12:04;;;;;;;18.90;4.18;;;8.20;44.40;;;;;;5049770;28;20078;-68
2021/12/12 12:15:11;;;;;;;16.95;5.18;;;8.20;49.80;;;;;;5048086;28;20081;-69
2021/12/12 12:17:59;;;;;;;25.17;5.20;;;8.10;68.10;;;;;;5061097;28;20105;-66
2021/12/12 12:21:08;;;;;;;18.10;4.50;;;8.60;67.50;;;;;;5047547;28;20140;-66
2021/12/12 12:27:06;;;;;;;20.55;4.20;;;8.30;45.20;;;;;;5045949;28;20037;-65
2021/12/12 12:29:58;;;;;;;18.40;4.80;;;8.10;47.00;;;;;;5046387;28;20048;-68
2021/12/12 12:33:11;;;;;;;18.50;5.28;;;8.20;45.40;;;;;;5047078;28;20816;-66
2021/12/12 12:36:12;;;;;;;23.50;5.15;;;8.10;44.00;;;;;;4961372;28;20090;-66
2021/12/12 12:38:58;;;;;;;23.08;5.28;;;;;;;;;;5021337;28;20476;-65
2021/12/12 12:42:00;;;;;;;19.63;5.28;;;8.20;68.50;;;;;;5029146;28;20610;-66
2021/12/12 12:45:13;;;;;;;21.25;5.25;;;8.70;46.50;;;;;;5028745;28;20119;-66
2021/12/12 12:48:10;;;;;;;15.90;5.40;;;8.20;46.00;;;;;;4989675;28;20124;-66
2021/12/12 12:51:07;;;;;;;20.58;4.85;;;8.20;73.00;;;;;;4989870;28;20106;-67
2021/12/12 12:53:47;;;;;;;14.35;4.95;;;8.30;52.70;;;;;;4978438;28;20086;-67
2021/12/12 12:56:49;;;;;;;13.80;5.22;;;8.20;80.10;;;;;;4978508;28;20304;-66
2021/12/12 12:59:55;;;;;;;16.15;6.43;;;8.20;46.30;;;;;;4977762;28;20034;-64
2021/12/12 13:02:58;;;;;;;20.02;7.53;;;8.20;83.40;;;;;;4984472;28;20120;-66
2021/12/12 13:05:33;;;;;;;26.25;6.90;;;9.60;71.00;;;;;;5008982;28;20063;-66
2021/12/12 13:08:36;;;;;;;20.42;6.85;;;8.10;47.00;;;;;;5027429;28;20536;-65
2021/12/12 13:11:08;;;;;;;18.33;7.30;;;8.10;47.80;;;;;;5010567;28;20163;-67
2021/12/12 13:13:52;;;;;;;19.20;7.55;;;8.10;48.10;;;;;;5009822;28;20081;-66
2021/12/12 13:16:30;;;;;;;26.77;7.82;;;8.00;47.40;;;;;;5009136;28;20060;-66
2021/12/12 13:19:09;;;;;;;18.65;7.32;;;8.00;47.70;;;;;;5042746;28;20077;-65
2021/12/12 13:22:02;;;;;;;27.25;8.15;;;8.10;48.10;;;;;;5049866;28;20495;-66
2021/12/12 13:24:37;;;;;;;24.10;8.07;;;8.10;48.60;;;;;;5049751;28;20074;-67
2021/12/12 13:27:40;;;;;;;23.48;7.80;;;8.10;73.90;;;;;;5049919;28;20099;-66
2021/12/12 13:30:08;;;;;;;26.85;7.20;;;8.10;49.10;;;;;;5051172;28;20444;-66
2021/12/12 13:32:51;;;;;;;21.63;7.70;;;7.90;48.60;;;;;;5050848;28;20080;-67
2021/12/12 13:35:21;;;;;;;18.05;7.55;;;7.90;85.40;;;;;;5067421;28;20033;-66
2021/12/12 13:38:05;;;;;;;24.05;7.32;;;7.90;48.30;;;;;;5051893;28;20089;-67
2021/12/12 13:40:48;;;;;;;19.35;7.38;;;7.70;56.50;;;;;;5051592;28;20058;-68
2021/12/12 13:43:27;;;;;;;19.73;7.75;;;7.70;49.10;;;;;;5051144;28;20025;-68
2021/12/12 13:46:03;;;;;;;26.13;9.00;;;7.40;51.20;;;;;;5051303;28;20525;-69